createdAt,value
2023-04-17T00:01:05.805Z,12.10
2023-04-17T00:04:10.970Z,12.15
2023-04-17T00:07:13.826Z,12.82
2023-04-17T00:10:16.749Z,12.55
2023-04-17T00:13:19.100Z,13.50
2023-04-17T00:16:21.412Z,12.52
2023-04-17T00:19:23.818Z,14.70
2023-04-17T00:22:26.304Z,14.02
2023-04-17T00:25:28.634Z,13.55
2023-04-17T00:28:31.011Z,14.40
2023-04-17T00:31:33.376Z,14.55
2023-04-17T00:34:35.895Z,14.20
2023-04-17T00:37:38.232Z,15.30
2023-04-17T00:40:42.130Z,15.13
2023-04-17T00:43:44.443Z,14.65
2023-04-17T00:46:47.036Z,14.00
2023-04-17T00:49:51.205Z,14.25
2023-04-17T00:55:56.170Z,14.65
2023-04-17T00:58:58.847Z,15.27
2023-04-17T01:02:01.373Z,14.77
2023-04-17T01:05:04.492Z,15.25
2023-04-17T01:08:06.928Z,14.65
2023-04-17T01:11:10.423Z,15.13
2023-04-17T01:14:15.670Z,17.25
2023-04-17T01:17:19.673Z,15.10
2023-04-17T01:20:22.389Z,15.43
2023-04-17T01:23:24.805Z,16.15
2023-04-17T01:26:28.421Z,16.40
2023-04-17T01:29:31.054Z,16.35
2023-04-17T01:32:33.734Z,18.17
2023-04-17T01:35:36.139Z,17.17
2023-04-17T01:38:38.760Z,18.40
2023-04-17T01:41:41.248Z,17.25
2023-04-17T01:44:43.750Z,18.30
2023-04-17T01:47:46.128Z,18.02
2023-04-17T01:50:48.469Z,18.88
2023-04-17T01:53:50.781Z,18.58
2023-04-17T01:56:53.408Z,17.13
2023-04-17T01:59:57.238Z,18.30
2023-04-17T02:03:00.361Z,17.10
2023-04-17T02:06:02.840Z,16.30
2023-04-17T02:09:06.318Z,16.90
2023-04-17T02:12:11.635Z,16.65
2023-04-17T02:15:14.141Z,17.63
2023-04-17T02:18:16.811Z,18.23
2023-04-17T02:21:19.173Z,17.38
2023-04-17T02:24:21.474Z,17.70
2023-04-17T02:27:23.795Z,17.25
2023-04-17T02:30:27.336Z,16.23
2023-04-17T02:33:31.503Z,16.80
2023-04-17T02:36:34.585Z,19.00
2023-04-17T02:39:36.972Z,17.67
2023-04-17T02:42:39.331Z,18.17
2023-04-17T02:45:41.577Z,18.38
2023-04-17T02:48:44.164Z,19.08
2023-04-17T02:51:46.654Z,20.65
2023-04-17T02:54:49.042Z,19.00
2023-04-17T02:57:52.880Z,20.80
2023-04-17T03:01:01.936Z,18.70
2023-04-17T03:04:06.885Z,19.98
2023-04-17T03:07:10.603Z,21.05
2023-04-17T03:10:14.634Z,20.15
2023-04-17T03:13:16.993Z,20.90
2023-04-17T03:16:19.330Z,19.83
2023-04-17T03:19:22.369Z,19.88
2023-04-17T03:22:25.669Z,20.13
2023-04-17T03:25:28.204Z,20.33
2023-04-17T03:28:31.113Z,21.25
2023-04-17T03:31:33.455Z,21.08
2023-04-17T03:34:35.864Z,22.55
2023-04-17T03:37:38.214Z,23.05
2023-04-17T03:40:41.989Z,21.90
2023-04-17T03:43:45.784Z,24.40
2023-04-17T03:46:48.139Z,23.92
2023-04-17T03:49:50.612Z,22.80
2023-04-17T03:52:53.844Z,21.13
2023-04-17T03:55:57.349Z,16.80
2023-04-17T03:59:05.039Z,25.55
2023-04-17T04:02:11.910Z,24.15
2023-04-17T04:05:15.829Z,23.98
2023-04-17T04:08:18.999Z,24.17
2023-04-17T04:11:25.320Z,22.92
2023-04-17T04:14:27.732Z,23.45
2023-04-17T04:17:30.483Z,22.98
2023-04-17T04:20:33.675Z,17.05
2023-04-17T04:23:47.110Z,16.37
2023-04-17T04:26:53.648Z,21.63
2023-04-17T04:29:59.004Z,21.27
2023-04-17T04:33:08.526Z,22.60
2023-04-17T04:36:14.029Z,20.10
2023-04-17T04:39:20.758Z,22.73
2023-04-17T04:42:24.125Z,22.88
2023-04-17T04:45:37.566Z,23.27
2023-04-17T04:48:42.690Z,23.88
2023-04-17T04:51:45.889Z,22.95
2023-04-17T04:54:48.912Z,22.20
2023-04-17T04:57:54.275Z,21.55
2023-04-17T05:00:57.994Z,20.63
2023-04-17T05:04:06.875Z,21.08
2023-04-17T05:07:09.754Z,20.80
2023-04-17T05:10:14.022Z,18.88
2023-04-17T05:13:22.063Z,21.08
2023-04-17T05:16:25.159Z,20.58
2023-04-17T05:19:28.137Z,20.67
2023-04-17T05:22:36.268Z,18.88
2023-04-17T05:25:45.684Z,18.17
2023-04-17T05:28:49.453Z,20.70
2023-04-17T05:31:57.293Z,16.88
2023-04-17T05:35:16.563Z,17.55
2023-04-17T05:38:19.182Z,15.68
2023-04-17T05:41:21.591Z,15.95
2023-04-17T05:44:23.889Z,16.67
2023-04-17T05:47:26.415Z,16.17
2023-04-17T05:50:29.103Z,16.20
2023-04-17T05:53:31.960Z,16.05
2023-04-17T05:56:35.105Z,16.55
2023-04-17T05:59:37.964Z,15.68
2023-04-17T06:02:43.320Z,17.30
2023-04-17T06:05:52.100Z,14.90
2023-04-17T06:08:54.923Z,16.80
2023-04-17T06:11:59.210Z,15.75
2023-04-17T06:15:01.717Z,11.57
2023-04-17T06:18:04.358Z,13.57
2023-04-17T06:21:08.117Z,14.32
2023-04-17T06:24:11.607Z,12.60
2023-04-17T06:27:19.798Z,13.27
2023-04-17T06:30:22.518Z,12.35
2023-04-17T06:33:28.561Z,11.77
2023-04-17T06:36:33.495Z,9.73
2023-04-17T06:39:38.996Z,11.32
2023-04-17T06:42:41.841Z,10.00
2023-04-17T06:45:49.248Z,9.38
2023-04-17T06:48:52.668Z,8.23
2023-04-17T06:51:55.774Z,10.95
2023-04-17T06:55:00.071Z,10.00
2023-04-17T06:58:02.836Z,10.02
2023-04-17T07:01:05.755Z,9.23
2023-04-17T07:04:09.237Z,9.38
2023-04-17T07:07:11.892Z,16.40
2023-04-17T07:10:16.250Z,9.25
2023-04-17T07:13:18.780Z,9.57
2023-04-17T07:16:24.433Z,9.75
2023-04-17T07:19:27.221Z,8.90
2023-04-17T07:22:29.577Z,10.48
2023-04-17T07:25:31.893Z,10.23
2023-04-17T07:28:34.566Z,8.75
2023-04-17T07:31:37.422Z,9.57
2023-04-17T07:34:41.633Z,10.77
2023-04-17T07:40:46.598Z,9.85
2023-04-17T07:43:49.042Z,8.70
2023-04-17T07:46:51.584Z,8.02
2023-04-17T07:49:53.962Z,7.72
2023-04-17T07:52:56.736Z,10.23
2023-04-17T07:55:59.735Z,6.30
2023-04-17T07:59:02.749Z,6.63
2023-04-17T08:02:06.028Z,5.90
2023-04-17T08:05:09.667Z,7.13
2023-04-17T08:08:12.029Z,3.73
2023-04-17T08:11:15.846Z,6.07
2023-04-17T08:14:20.471Z,8.02
2023-04-17T08:17:26.376Z,6.18
2023-04-17T08:20:28.782Z,5.00
2023-04-17T08:23:31.500Z,5.05
2023-04-17T08:26:33.959Z,5.45
2023-04-17T08:29:36.636Z,4.85
2023-04-17T08:32:46.871Z,3.47
2023-04-17T08:35:49.685Z,3.75
2023-04-17T08:38:52.954Z,4.25
2023-04-17T08:42:03.282Z,4.78
2023-04-17T08:45:07.770Z,3.40
2023-04-17T08:48:11.551Z,3.25
2023-04-17T08:51:15.425Z,3.92
2023-04-17T08:54:19.613Z,3.72
2023-04-17T08:57:22.004Z,3.28
2023-04-17T09:00:26.318Z,2.92
2023-04-17T09:03:41.276Z,2.63
2023-04-17T09:06:54.645Z,3.05
2023-04-17T09:09:57.688Z,3.50
2023-04-17T09:13:01.547Z,3.80
2023-04-17T09:16:06.241Z,3.35
2023-04-17T09:19:08.999Z,3.28
2023-04-17T09:22:21.721Z,3.67
2023-04-17T09:25:24.497Z,3.17
2023-04-17T09:28:26.892Z,3.75
2023-04-17T09:31:31.076Z,3.10
2023-04-17T09:37:55.839Z,3.00
2023-04-17T09:40:58.340Z,2.65
2023-04-17T09:44:05.579Z,2.53
2023-04-17T09:47:08.634Z,2.35
2023-04-17T09:50:11.795Z,3.60
2023-04-17T09:53:16.614Z,2.05
2023-04-17T09:56:21.765Z,6.15
2023-04-17T09:59:25.099Z,2.50
2023-04-17T10:02:28.584Z,1.70
2023-04-17T10:05:32.611Z,2.63
2023-04-17T10:08:35.379Z,3.97
2023-04-17T10:11:46.231Z,2.42
2023-04-17T10:14:51.060Z,2.63
2023-04-17T10:17:56.463Z,2.83
2023-04-17T10:21:22.527Z,3.20
2023-04-17T10:24:25.713Z,3.10
2023-04-17T10:27:28.168Z,3.03
2023-04-17T10:30:56.393Z,3.35
2023-04-17T10:33:58.794Z,3.10
2023-04-17T10:37:01.761Z,2.83
2023-04-17T10:40:10.369Z,2.65
2023-04-17T10:43:23.572Z,2.60
2023-04-17T10:46:26.863Z,2.50
2023-04-17T10:49:29.390Z,2.30
2023-04-17T10:52:41.729Z,2.25
2023-04-17T10:55:53.391Z,3.50
2023-04-17T10:58:59.601Z,2.17
2023-04-17T11:02:04.874Z,2.80
2023-04-17T11:05:08.663Z,2.00
2023-04-17T11:08:12.008Z,2.20
2023-04-17T11:11:26.936Z,2.33
2023-04-17T11:14:43.207Z,2.60
2023-04-17T11:17:48.602Z,3.30
2023-04-17T11:20:51.415Z,2.20
2023-04-17T11:23:53.850Z,2.13
2023-04-17T11:27:00.019Z,3.47
2023-04-17T11:30:02.697Z,2.30
2023-04-17T11:33:07.949Z,2.30
2023-04-17T11:36:11.089Z,2.40
2023-04-17T11:39:15.919Z,1.92
2023-04-17T11:42:27.894Z,1.90
2023-04-17T11:45:32.707Z,2.47
2023-04-17T11:48:35.512Z,2.60
2023-04-17T11:51:37.940Z,2.60
2023-04-17T11:54:41.315Z,2.10
2023-04-17T11:57:43.822Z,1.70
2023-04-17T12:00:46.236Z,3.58
2023-04-17T12:03:48.888Z,6.05
2023-04-17T12:06:51.463Z,2.22
2023-04-17T12:09:57.903Z,2.42
2023-04-17T12:13:00.422Z,2.45
2023-04-17T12:16:02.982Z,4.70
2023-04-17T12:19:05.645Z,2.35
2023-04-17T12:22:08.071Z,2.50
2023-04-17T12:25:10.776Z,2.00
2023-04-17T12:28:13.103Z,3.85
2023-04-17T12:31:15.616Z,2.65
2023-04-17T12:34:18.132Z,4.28
2023-04-17T12:37:20.748Z,3.67
2023-04-17T12:40:25.217Z,4.30
2023-04-17T12:43:27.847Z,3.20
2023-04-17T12:46:31.552Z,5.35
2023-04-17T12:49:33.927Z,4.15
2023-04-17T12:52:36.392Z,4.30
2023-04-17T12:55:41.079Z,4.03
2023-04-17T12:58:44.057Z,6.47
2023-04-17T13:01:46.938Z,2.83
2023-04-17T13:04:53.611Z,3.40
2023-04-17T13:07:57.274Z,3.15
2023-04-17T13:11:00.959Z,6.93
2023-04-17T13:14:04.003Z,2.45
2023-04-17T13:17:06.892Z,5.75
2023-04-17T13:20:10.311Z,5.90
2023-04-17T13:23:14.616Z,3.80
2023-04-17T13:26:17.101Z,3.20
2023-04-17T13:29:20.103Z,3.72
2023-04-17T13:32:23.125Z,4.38
2023-04-17T13:35:25.596Z,4.80
2023-04-17T13:38:28.023Z,5.05
2023-04-17T13:41:30.363Z,5.45
2023-04-17T13:44:33.349Z,8.30
2023-04-17T13:47:35.982Z,5.43
2023-04-17T13:50:38.592Z,5.05
2023-04-17T13:53:41.300Z,5.20
2023-04-17T13:56:43.817Z,9.48
2023-04-17T13:59:46.537Z,7.35
2023-04-17T14:02:49.235Z,5.78
2023-04-17T14:05:51.867Z,6.15
2023-04-17T14:08:55.500Z,6.25
2023-04-17T14:11:58.382Z,4.95
2023-04-17T14:15:00.710Z,7.03
2023-04-17T14:18:03.469Z,4.80
2023-04-17T14:21:06.072Z,5.07
2023-04-17T14:24:08.849Z,5.65
2023-04-17T14:27:11.298Z,6.75
2023-04-17T14:30:13.918Z,6.38
2023-04-17T14:33:16.190Z,5.72
2023-04-17T14:36:18.564Z,6.35
2023-04-17T14:39:20.913Z,7.00
2023-04-17T14:42:23.376Z,7.03
2023-04-17T14:45:25.910Z,7.20
2023-04-17T14:48:30.286Z,7.07
2023-04-17T14:51:33.637Z,7.95
2023-04-17T14:54:36.072Z,8.98
2023-04-17T14:57:38.365Z,10.65
2023-04-17T15:00:41.134Z,10.63
2023-04-17T15:03:47.448Z,10.90
2023-04-17T15:06:50.920Z,11.55
2023-04-17T15:09:55.291Z,12.38
2023-04-17T15:13:00.453Z,10.88
2023-04-17T15:16:03.447Z,10.93
2023-04-17T15:19:06.202Z,10.50
2023-04-17T15:22:08.701Z,11.50
2023-04-17T15:25:11.101Z,10.90
2023-04-17T15:28:13.568Z,10.80
2023-04-17T15:31:16.017Z,10.45
2023-04-17T15:34:18.922Z,12.05
2023-04-17T15:37:21.390Z,10.13
2023-04-17T15:40:23.919Z,11.20
2023-04-17T15:43:27.008Z,12.52
2023-04-17T15:46:31.879Z,11.52
2023-04-17T15:49:34.615Z,11.90
2023-04-17T15:52:37.096Z,12.27
2023-04-17T15:55:41.481Z,11.85
2023-04-17T15:58:43.983Z,12.27
2023-04-17T16:01:47.947Z,11.27
2023-04-17T16:04:50.348Z,11.52
2023-04-17T16:07:52.728Z,12.75
2023-04-17T16:10:55.460Z,11.82
2023-04-17T16:13:58.163Z,12.50
2023-04-17T16:17:01.277Z,12.68
2023-04-17T16:20:04.419Z,12.00
2023-04-17T16:23:06.849Z,12.27
2023-04-17T16:26:09.304Z,12.25
2023-04-17T16:29:11.836Z,11.95
2023-04-17T16:32:14.476Z,12.07
2023-04-17T16:35:17.550Z,12.10
2023-04-17T16:38:20.037Z,12.55
2023-04-17T16:41:22.393Z,12.55
2023-04-17T16:44:28.593Z,12.45
2023-04-17T16:47:31.435Z,11.82
2023-04-17T16:50:33.961Z,11.38
2023-04-17T16:53:36.385Z,12.15
2023-04-17T16:56:38.751Z,12.10
2023-04-17T16:59:41.144Z,12.73
2023-04-17T17:02:43.995Z,12.73
2023-04-17T17:05:48.164Z,12.50
2023-04-17T17:08:51.085Z,12.40
2023-04-17T17:11:54.600Z,13.32
2023-04-17T17:14:57.080Z,12.90
2023-04-17T17:17:59.386Z,14.02
2023-04-17T17:21:02.089Z,13.70
2023-04-17T17:24:04.724Z,14.10
2023-04-17T17:27:07.167Z,14.23
2023-04-17T17:30:09.846Z,14.13
2023-04-17T17:33:12.228Z,14.70
2023-04-17T17:36:14.992Z,15.18
2023-04-17T17:39:17.404Z,14.75
2023-04-17T17:42:19.767Z,15.20
2023-04-17T17:45:22.068Z,13.75
2023-04-17T17:48:24.505Z,14.73
2023-04-17T17:51:27.738Z,15.00
2023-04-17T17:54:30.068Z,14.95
2023-04-17T17:57:42.278Z,14.82
2023-04-17T18:00:51.538Z,14.55
2023-04-17T18:03:54.184Z,14.98
2023-04-17T18:06:56.840Z,14.77
2023-04-17T18:09:59.216Z,15.15
2023-04-17T18:13:01.805Z,14.55
2023-04-17T18:16:04.989Z,14.35
2023-04-17T18:19:07.774Z,11.50
2023-04-17T18:22:10.669Z,13.77
2023-04-17T18:25:13.177Z,14.02
2023-04-17T18:28:15.779Z,13.90
2023-04-17T18:31:19.114Z,12.85
2023-04-17T18:34:25.092Z,9.40
2023-04-17T18:37:27.622Z,13.15
2023-04-17T18:40:30.785Z,14.27
2023-04-17T18:43:33.297Z,13.55
2023-04-17T18:46:35.882Z,13.63
2023-04-17T18:49:38.590Z,14.38
2023-04-17T18:52:43.220Z,13.90
2023-04-17T18:55:47.994Z,12.77
2023-04-17T18:58:51.299Z,14.57
2023-04-17T19:01:53.657Z,14.30
2023-04-17T19:04:56.460Z,13.30
2023-04-17T19:07:59.020Z,13.18
2023-04-17T19:11:01.874Z,15.05
2023-04-17T19:14:04.197Z,15.40
2023-04-17T19:17:06.547Z,14.73
2023-04-17T19:20:09.920Z,15.27
2023-04-17T19:23:12.693Z,15.35
2023-04-17T19:26:18.286Z,15.07
2023-04-17T19:29:20.607Z,14.57
2023-04-17T19:32:22.902Z,15.40
2023-04-17T19:35:26.331Z,14.80
2023-04-17T19:38:28.940Z,15.57
2023-04-17T19:41:31.476Z,15.90
2023-04-17T19:44:33.888Z,15.30
2023-04-17T19:47:37.418Z,17.42
2023-04-17T19:50:39.852Z,17.30
2023-04-17T19:53:43.455Z,15.90
2023-04-17T19:56:45.941Z,17.95
2023-04-17T19:59:48.413Z,17.13
2023-04-17T20:02:51.030Z,16.05
2023-04-17T20:05:54.048Z,17.40
2023-04-17T20:08:58.519Z,15.45
2023-04-17T20:12:00.939Z,16.60
2023-04-17T20:15:03.496Z,17.80
2023-04-17T20:18:07.646Z,16.42
2023-04-17T20:24:13.052Z,17.58
2023-04-17T20:27:15.466Z,17.58
2023-04-17T20:30:17.900Z,19.52
2023-04-17T20:33:20.404Z,18.30
2023-04-17T20:36:22.780Z,18.80
2023-04-17T20:39:25.161Z,18.52
2023-04-17T20:42:27.634Z,19.92
2023-04-17T20:45:30.033Z,19.02
2023-04-17T20:48:32.477Z,18.20
2023-04-17T20:51:34.977Z,19.88
2023-04-17T20:54:37.378Z,20.15
2023-04-17T20:57:41.024Z,19.58
2023-04-17T21:00:57.847Z,20.63
2023-04-17T21:04:03.545Z,21.10
2023-04-17T21:07:06.170Z,20.37
2023-04-17T21:10:09.048Z,20.88
2023-04-17T21:13:11.523Z,20.48
2023-04-17T21:16:14.081Z,22.05
2023-04-17T21:19:16.507Z,21.48
2023-04-17T21:22:19.122Z,20.80
2023-04-17T21:25:21.750Z,22.45
2023-04-17T21:28:24.259Z,22.17
2023-04-17T21:31:26.945Z,21.40
2023-04-17T21:34:29.304Z,21.17
2023-04-17T21:37:31.595Z,19.77
2023-04-17T21:40:36.678Z,21.63
2023-04-17T21:43:39.415Z,21.38
2023-04-17T21:46:45.242Z,21.58
2023-04-17T21:49:47.569Z,21.45
2023-04-17T21:52:49.937Z,21.45
2023-04-17T21:55:52.277Z,21.67
2023-04-17T21:58:54.788Z,20.67
2023-04-17T22:01:57.282Z,21.23
2023-04-17T22:04:59.858Z,21.73
2023-04-17T22:08:02.403Z,19.95
2023-04-17T22:11:05.985Z,21.60
2023-04-17T22:14:08.464Z,20.85
2023-04-17T22:17:10.799Z,21.33
2023-04-17T22:21:09.283Z,21.35
2023-04-17T22:25:26.971Z,20.63
2023-04-17T22:29:44.083Z,20.13
2023-04-17T22:34:01.721Z,22.58
2023-04-17T22:38:18.852Z,21.92
2023-04-17T22:42:36.281Z,22.65
2023-04-17T22:46:53.238Z,19.10
2023-04-17T22:51:10.895Z,20.45
2023-04-17T22:55:28.195Z,22.08
2023-04-17T22:59:45.597Z,19.58
2023-04-17T23:04:03.247Z,19.17
2023-04-17T23:08:20.934Z,18.40
2023-04-17T23:11:41.981Z,19.67
2023-04-17T23:14:45.914Z,20.17
2023-04-17T23:17:48.309Z,20.00
2023-04-17T23:20:50.970Z,20.90
2023-04-17T23:23:53.368Z,22.90
2023-04-17T23:26:56.386Z,20.90
2023-04-17T23:29:59.589Z,19.63
2023-04-17T23:33:01.965Z,21.40
2023-04-17T23:36:04.637Z,20.75
2023-04-17T23:39:06.987Z,20.63
2023-04-17T23:42:09.877Z,19.73
2023-04-17T23:45:12.288Z,20.13
2023-04-17T23:48:14.861Z,19.05
2023-04-17T23:51:17.698Z,22.08
2023-04-17T23:54:20.204Z,20.92
2023-04-17T23:57:22.599Z,20.63
